createdAt,value
2018-09-08T00:01:35.728Z,68.40
2018-09-08T00:04:04.156Z,68.16
2018-09-08T00:06:34.737Z,68.74
2018-09-08T00:09:05.137Z,68.56
2018-09-08T00:11:33.536Z,68.50
2018-09-08T00:14:02.273Z,68.44
2018-09-08T00:16:36.014Z,68.53
2018-09-08T00:19:09.771Z,68.58
2018-09-08T00:21:43.348Z,69.14
2018-09-08T00:24:16.829Z,69.75
2018-09-08T00:26:44.385Z,70.26
2018-09-08T00:29:19.844Z,70.54
2018-09-08T00:31:48.269Z,70.93
2018-09-08T00:34:16.677Z,71.04
2018-09-08T00:36:45.095Z,71.44
2018-09-08T00:39:13.549Z,71.02
2018-09-08T00:41:41.929Z,70.92
2018-09-08T00:44:10.352Z,70.70
2018-09-08T00:46:39.914Z,71.26
2018-09-08T00:49:08.341Z,71.03
2018-09-08T00:51:36.722Z,71.08
2018-09-08T00:54:05.198Z,70.83
2018-09-08T00:56:33.589Z,70.27
2018-09-08T00:59:02.922Z,70.53
2018-09-08T01:01:32.304Z,70.29
2018-09-08T01:04:00.693Z,69.67
2018-09-08T01:06:29.326Z,69.40
2018-09-08T01:08:57.752Z,69.07
2018-09-08T01:11:26.245Z,68.76
2018-09-08T01:13:54.749Z,69.26
2018-09-08T01:16:23.199Z,68.56
2018-09-08T01:18:51.589Z,68.59
2018-09-08T01:21:20.045Z,68.02
2018-09-08T01:23:51.124Z,68.38
2018-09-08T01:26:20.365Z,68.11
2018-09-08T01:28:49.349Z,68.61
2018-09-08T01:31:17.899Z,68.14
2018-09-08T01:33:46.356Z,67.96
2018-09-08T01:36:15.093Z,67.48
2018-09-08T01:38:43.482Z,67.32
2018-09-08T01:41:11.941Z,67.64
2018-09-08T01:43:40.345Z,67.43
2018-09-08T01:46:13.268Z,67.84
2018-09-08T01:48:41.700Z,67.74
2018-09-08T01:51:10.221Z,68.30
2018-09-08T01:53:38.600Z,68.36
2018-09-08T01:56:07.417Z,68.68
2018-09-08T01:58:35.846Z,68.80
2018-09-08T02:01:04.313Z,68.48
2018-09-08T02:03:32.840Z,68.53
2018-09-08T02:06:01.598Z,68.77
2018-09-08T02:08:30.447Z,68.50
2018-09-08T02:10:58.822Z,68.48
2018-09-08T02:13:27.229Z,68.44
2018-09-08T02:15:55.628Z,68.64
2018-09-08T02:18:24.066Z,68.67
2018-09-08T02:20:52.481Z,68.61
2018-09-08T02:23:20.930Z,68.60
2018-09-08T02:25:49.328Z,68.39
2018-09-08T02:28:17.766Z,68.59
2018-09-08T02:30:46.222Z,68.42
2018-09-08T02:33:14.681Z,68.41
2018-09-08T02:35:43.090Z,68.56
2018-09-08T02:38:11.501Z,68.29
2018-09-08T02:40:39.909Z,68.39
2018-09-08T02:43:08.316Z,68.28
2018-09-08T02:45:36.778Z,68.58
2018-09-08T02:48:05.218Z,68.85
2018-09-08T02:50:35.809Z,68.45
2018-09-08T02:53:03.653Z,68.19
2018-09-08T02:55:31.428Z,68.23
2018-09-08T02:57:59.004Z,68.50
2018-09-08T03:00:26.913Z,68.16
2018-09-08T03:02:54.569Z,68.13
2018-09-08T03:05:22.153Z,68.40
2018-09-08T03:07:49.465Z,68.35
2018-09-08T03:10:17.093Z,68.35
2018-09-08T03:12:44.341Z,67.89
2018-09-08T03:15:11.624Z,68.82
2018-09-08T03:17:41.042Z,68.40
2018-09-08T03:20:08.550Z,68.72
2018-09-08T03:22:35.784Z,68.74
2018-09-08T03:25:03.871Z,68.94
2018-09-08T03:27:31.102Z,68.80
2018-09-08T03:29:58.380Z,69.22
2018-09-08T03:32:25.612Z,69.37
2018-09-08T03:34:52.845Z,69.17
2018-09-08T03:37:20.115Z,69.06
2018-09-08T03:39:47.377Z,69.06
2018-09-08T03:42:14.646Z,69.31
2018-09-08T03:44:41.888Z,68.68
2018-09-08T03:47:09.585Z,68.87
2018-09-08T03:49:36.825Z,68.44
2018-09-08T03:52:04.090Z,69.28
2018-09-08T03:54:31.336Z,69.31
2018-09-08T03:56:58.611Z,69.56
2018-09-08T03:59:25.841Z,69.46
2018-09-08T04:01:53.120Z,68.95
2018-09-08T04:04:21.509Z,68.14
2018-09-08T04:06:49.929Z,67.85
2018-09-08T04:09:18.344Z,67.75
2018-09-08T04:11:46.808Z,67.20
2018-09-08T04:14:15.206Z,67.42
2018-09-08T04:16:43.969Z,67.21
2018-09-08T04:19:12.367Z,67.00
2018-09-08T04:21:40.761Z,67.50
2018-09-08T04:24:09.246Z,67.80
2018-09-08T04:26:37.634Z,67.34
2018-09-08T04:29:05.993Z,66.84
2018-09-08T04:31:34.357Z,66.93
2018-09-08T04:34:02.785Z,67.16
2018-09-08T04:36:31.187Z,66.08
2018-09-08T04:38:59.617Z,66.20
2018-09-08T04:41:28.417Z,66.17
2018-09-08T04:43:56.829Z,65.66
2018-09-08T04:46:25.248Z,65.98
2018-09-08T04:48:54.265Z,66.46
2018-09-08T04:51:23.141Z,65.98
2018-09-08T04:53:51.558Z,65.65
2018-09-08T04:56:19.977Z,65.99
2018-09-08T04:58:49.044Z,66.38
2018-09-08T05:01:17.456Z,66.82
2018-09-08T05:03:45.901Z,66.41
2018-09-08T05:06:14.326Z,66.12
2018-09-08T05:08:42.745Z,65.72
2018-09-08T05:11:11.146Z,66.25
2018-09-08T05:13:39.602Z,65.92
2018-09-08T05:16:08.123Z,65.87
2018-09-08T05:18:36.529Z,66.00
2018-09-08T05:21:04.892Z,66.45
2018-09-08T05:23:33.353Z,66.58
2018-09-08T05:26:01.733Z,66.73
2018-09-08T05:28:30.495Z,67.18
2018-09-08T05:30:58.861Z,66.83
2018-09-08T05:33:27.333Z,66.97
2018-09-08T05:35:55.795Z,67.48
2018-09-08T05:38:24.165Z,67.19
2018-09-08T05:40:52.577Z,67.12
2018-09-08T05:43:20.953Z,67.32
2018-09-08T05:45:49.369Z,66.44
2018-09-08T05:48:17.741Z,66.51
2018-09-08T05:50:46.188Z,66.20
2018-09-08T05:53:14.585Z,65.88
2018-09-08T05:55:43.017Z,66.13
2018-09-08T05:58:11.477Z,65.54
2018-09-08T06:00:39.944Z,65.65
2018-09-08T06:03:08.333Z,65.54
2018-09-08T06:05:36.760Z,65.09
2018-09-08T06:08:05.144Z,64.87
2018-09-08T06:10:33.567Z,65.04
2018-09-08T06:13:01.965Z,64.73
2018-09-08T06:15:30.612Z,64.26
2018-09-08T06:17:58.995Z,64.33
2018-09-08T06:20:27.425Z,64.58
2018-09-08T06:22:55.805Z,63.44
2018-09-08T06:25:24.282Z,63.52
2018-09-08T06:27:52.641Z,63.62
2018-09-08T06:30:21.026Z,63.52
2018-09-08T06:32:49.464Z,63.47
2018-09-08T06:35:17.969Z,63.66
2018-09-08T06:37:46.267Z,62.39
2018-09-08T06:40:14.673Z,62.80
2018-09-08T06:42:43.095Z,61.34
2018-09-08T06:45:11.549Z,61.42
2018-09-08T06:47:39.937Z,61.60
2018-09-08T06:50:08.375Z,61.59
2018-09-08T06:52:36.808Z,61.15
2018-09-08T06:57:58.087Z,60.22
2018-09-08T07:00:26.527Z,59.56
2018-09-08T07:02:54.986Z,58.93
2018-09-08T07:05:23.350Z,59.10
2018-09-08T07:07:51.761Z,58.59
2018-09-08T07:10:20.212Z,58.08
2018-09-08T07:12:48.620Z,57.66
2018-09-08T07:15:17.070Z,57.78
2018-09-08T07:17:45.504Z,57.23
2018-09-08T07:20:13.899Z,57.03
2018-09-08T07:22:42.321Z,56.13
2018-09-08T07:25:11.079Z,55.81
2018-09-08T07:27:39.501Z,55.40
2018-09-08T07:30:08.059Z,55.94
2018-09-08T07:32:36.441Z,55.44
2018-09-08T07:35:04.892Z,55.66
2018-09-08T07:37:33.286Z,55.73
2018-09-08T07:40:01.721Z,56.87
2018-09-08T07:42:30.105Z,58.05
2018-09-08T07:44:58.504Z,58.86
2018-09-08T07:47:26.894Z,58.41
2018-09-08T07:49:55.328Z,58.24
2018-09-08T07:52:23.729Z,58.39
2018-09-08T07:54:52.181Z,58.83
2018-09-08T07:57:20.650Z,58.55
2018-09-08T07:59:49.153Z,57.93
2018-09-08T08:02:17.534Z,56.73
2018-09-08T08:04:45.952Z,55.40
2018-09-08T08:07:15.261Z,56.01
2018-09-08T08:09:46.677Z,54.18
2018-09-08T08:12:15.104Z,52.89
2018-09-08T08:14:43.554Z,51.80
2018-09-08T08:17:11.997Z,51.27
2018-09-08T08:19:40.412Z,51.36
2018-09-08T08:22:08.831Z,50.37
2018-09-08T08:24:38.012Z,52.92
2018-09-08T08:28:23.561Z,53.54
2018-09-08T08:30:51.966Z,53.04
2018-09-08T08:33:20.546Z,55.29
2018-09-08T08:35:49.900Z,55.29
2018-09-08T08:38:26.498Z,54.58
2018-09-08T08:40:54.938Z,53.26
2018-09-08T08:43:23.386Z,54.64
2018-09-08T08:45:51.737Z,52.89
2018-09-08T08:48:20.202Z,53.30
2018-09-08T08:50:59.956Z,54.93
2018-09-08T08:53:39.809Z,54.45
2018-09-08T08:56:08.270Z,52.53
2018-09-08T08:58:36.714Z,51.53
2018-09-08T09:01:05.290Z,51.93
2018-09-08T09:03:33.728Z,52.96
2018-09-08T09:06:02.150Z,52.82
2018-09-08T09:08:30.953Z,52.66
2018-09-08T09:10:59.749Z,51.27
2018-09-08T09:13:28.523Z,50.70
2018-09-08T09:15:56.885Z,51.14
2018-09-08T09:18:37.972Z,50.08
2018-09-08T09:21:17.168Z,51.00
2018-09-08T09:25:01.989Z,48.98
2018-09-08T09:27:31.689Z,50.56
2018-09-08T09:30:00.401Z,50.05
2018-09-08T09:32:28.805Z,50.64
2018-09-08T09:34:57.197Z,49.06
2018-09-08T09:37:25.686Z,49.42
2018-09-08T09:39:54.789Z,48.65
2018-09-08T09:42:23.173Z,49.20
2018-09-08T09:44:51.587Z,48.58
2018-09-08T09:47:20.265Z,49.40
2018-09-08T09:49:48.762Z,50.41
2018-09-08T09:52:17.244Z,49.94
2018-09-08T09:54:45.756Z,49.92
2018-09-08T09:57:14.217Z,50.80
2018-09-08T09:59:42.696Z,50.69
2018-09-08T10:03:15.586Z,50.92
2018-09-08T10:05:43.985Z,51.28
2018-09-08T10:08:12.345Z,50.69
2018-09-08T10:10:40.756Z,50.18
2018-09-08T10:13:09.133Z,50.23
2018-09-08T10:15:37.561Z,49.57
2018-09-08T10:18:06.031Z,49.70
2018-09-08T10:20:34.728Z,50.12
2018-09-08T10:23:03.219Z,49.81
2018-09-08T10:25:31.521Z,49.93
2018-09-08T10:27:59.937Z,48.77
2018-09-08T10:30:28.376Z,48.53
2018-09-08T10:32:57.133Z,48.96
2018-09-08T10:35:27.270Z,48.27
2018-09-08T10:37:56.185Z,49.73
2018-09-08T10:40:24.590Z,50.51
2018-09-08T10:42:52.996Z,50.27
2018-09-08T10:45:21.402Z,50.61
2018-09-08T10:47:50.525Z,50.40
2018-09-08T10:50:18.900Z,49.98
2018-09-08T10:52:48.361Z,50.10
2018-09-08T10:55:16.728Z,49.15
2018-09-08T10:57:45.141Z,48.25
2018-09-08T11:00:13.869Z,48.81
2018-09-08T11:02:43.476Z,47.78
2018-09-08T11:05:11.716Z,48.34
2018-09-08T11:07:40.103Z,49.37
2018-09-08T11:10:08.513Z,49.43
2018-09-08T11:12:36.928Z,49.55
2018-09-08T11:15:06.215Z,49.23
2018-09-08T11:17:35.193Z,49.18
2018-09-08T11:20:05.280Z,49.92
2018-09-08T11:22:33.697Z,50.38
2018-09-08T11:25:02.083Z,49.56
2018-09-08T11:27:30.502Z,49.21
2018-09-08T11:29:59.417Z,49.47
2018-09-08T11:32:28.541Z,48.60
2018-09-08T11:34:56.971Z,48.75
2018-09-08T11:37:25.429Z,48.20
2018-09-08T11:39:53.844Z,49.59
2018-09-08T11:42:22.231Z,49.12
2018-09-08T11:44:50.831Z,49.56
2018-09-08T11:47:19.190Z,49.28
2018-09-08T11:49:51.603Z,48.45
2018-09-08T11:52:20.985Z,48.74
2018-09-08T11:54:49.397Z,49.02
2018-09-08T11:57:17.773Z,48.57
2018-09-08T11:59:46.174Z,49.21
2018-09-08T12:02:14.578Z,48.87
2018-09-08T12:04:42.985Z,48.61
2018-09-08T12:07:11.361Z,47.32
2018-09-08T12:09:39.757Z,47.51
2018-09-08T12:12:08.128Z,47.42
2018-09-08T12:14:36.672Z,48.06
2018-09-08T12:17:05.062Z,47.93
2018-09-08T12:19:33.441Z,48.09
2018-09-08T12:22:01.863Z,47.66
2018-09-08T12:24:30.352Z,48.08
2018-09-08T12:26:58.749Z,46.86
2018-09-08T12:29:27.108Z,48.47
2018-09-08T12:31:55.554Z,46.94
2018-09-08T12:34:24.029Z,46.98
2018-09-08T12:36:52.424Z,47.37
2018-09-08T12:39:20.792Z,46.33
2018-09-08T12:41:49.515Z,46.83
2018-09-08T12:44:18.052Z,45.84
2018-09-08T12:46:47.720Z,45.45
2018-09-08T12:49:16.093Z,45.06
2018-09-08T12:51:44.493Z,45.26
2018-09-08T12:54:12.845Z,45.11
2018-09-08T12:56:41.253Z,45.94
2018-09-08T12:59:09.833Z,44.83
2018-09-08T13:01:38.217Z,45.57
2018-09-08T13:04:06.874Z,44.43
2018-09-08T13:06:35.305Z,44.54
2018-09-08T13:09:04.486Z,44.32
2018-09-08T13:11:32.841Z,44.22
2018-09-08T13:14:01.512Z,44.10
2018-09-08T13:16:29.906Z,44.57
2018-09-08T13:18:58.473Z,44.02
2018-09-08T13:21:26.853Z,43.80
2018-09-08T13:23:55.250Z,43.66
2018-09-08T13:26:23.622Z,44.21
2018-09-08T13:28:52.131Z,44.87
2018-09-08T13:31:20.536Z,45.14
2018-09-08T13:33:48.940Z,45.06
2018-09-08T13:36:17.306Z,45.13
2018-09-08T13:38:46.249Z,46.01
2018-09-08T13:41:14.616Z,45.11
2018-09-08T13:43:43.555Z,46.33
2018-09-08T13:46:11.937Z,44.89
2018-09-08T13:48:40.350Z,46.40
2018-09-08T13:51:08.726Z,46.45
2018-09-08T13:53:37.132Z,45.99
2018-09-08T13:56:05.609Z,46.25
2018-09-08T13:58:34.135Z,45.52
2018-09-08T14:01:02.749Z,45.50
2018-09-08T14:03:31.289Z,45.27
2018-09-08T14:05:59.657Z,44.10
2018-09-08T14:08:28.121Z,43.65
2018-09-08T14:10:57.023Z,42.96
2018-09-08T14:13:25.392Z,41.22
2018-09-08T14:15:53.776Z,41.98
2018-09-08T14:21:15.120Z,42.75
2018-09-08T14:23:43.564Z,43.08
2018-09-08T14:26:11.965Z,40.52
2018-09-08T14:28:40.408Z,41.78
2018-09-08T14:31:08.773Z,41.03
2018-09-08T14:33:37.134Z,40.42
2018-09-08T14:36:05.577Z,41.26
2018-09-08T14:38:34.012Z,43.04
2018-09-08T14:41:02.445Z,39.41
2018-09-08T14:43:31.076Z,39.78
2018-09-08T14:45:59.486Z,40.06
2018-09-08T14:48:27.865Z,40.36
2018-09-08T14:50:56.277Z,39.88
2018-09-08T14:53:24.645Z,41.48
2018-09-08T14:55:53.070Z,40.64
2018-09-08T14:58:22.173Z,41.47
2018-09-08T15:00:50.579Z,43.77
2018-09-08T15:03:19.232Z,43.23
2018-09-08T15:05:47.897Z,43.99
2018-09-08T15:08:17.927Z,43.64
2018-09-08T15:10:46.297Z,41.98
2018-09-08T15:13:14.689Z,40.17
2018-09-08T15:15:43.056Z,38.41
2018-09-08T15:18:11.461Z,37.12
2018-09-08T15:20:39.841Z,35.41
2018-09-08T15:23:08.233Z,33.23
2018-09-08T15:25:36.614Z,31.97
2018-09-08T15:28:08.202Z,30.20
2018-09-08T15:30:36.860Z,28.61
2018-09-08T15:33:06.213Z,27.07
2018-09-08T15:35:34.613Z,27.61
2018-09-08T15:38:03.106Z,26.34
2018-09-08T15:40:31.485Z,23.04
2018-09-08T15:42:59.902Z,24.34
2018-09-08T15:45:28.402Z,22.80
2018-09-08T15:47:56.772Z,22.94
2018-09-08T15:50:25.153Z,22.60
2018-09-08T15:52:53.988Z,22.95
2018-09-08T15:55:22.358Z,23.87
2018-09-08T15:57:51.148Z,25.26
2018-09-08T16:00:19.817Z,21.99
2018-09-08T16:02:48.193Z,21.45
2018-09-08T16:05:16.588Z,21.23
2018-09-08T16:07:44.993Z,20.29
2018-09-08T16:10:13.413Z,20.48
2018-09-08T16:12:41.797Z,20.69
2018-09-08T16:15:10.318Z,19.72
2018-09-08T16:17:39.392Z,19.78
2018-09-08T16:20:07.894Z,21.96
2018-09-08T16:22:36.306Z,19.65
2018-09-08T16:25:05.423Z,19.35
2018-09-08T16:27:33.823Z,20.61
2018-09-08T16:30:02.336Z,21.11
2018-09-08T16:32:30.697Z,20.27
2018-09-08T16:34:59.113Z,20.54
2018-09-08T16:37:30.582Z,20.56
2018-09-08T16:39:59.046Z,24.23
2018-09-08T16:42:27.430Z,27.37
2018-09-08T16:44:55.897Z,30.42
2018-09-08T16:47:24.252Z,32.68
2018-09-08T16:49:52.651Z,34.69
2018-09-08T16:52:21.037Z,36.58
2018-09-08T16:54:49.569Z,38.24
2018-09-08T16:57:17.937Z,38.26
2018-09-08T16:59:46.318Z,39.88
2018-09-08T17:02:14.767Z,41.40
2018-09-08T17:04:43.141Z,41.59
2018-09-08T17:07:11.576Z,42.09
2018-09-08T17:09:39.937Z,43.13
2018-09-08T17:12:08.329Z,42.59
2018-09-08T17:14:36.717Z,44.41
2018-09-08T17:17:05.154Z,44.65
2018-09-08T17:19:33.525Z,44.56
2018-09-08T17:22:01.925Z,45.86
2018-09-08T17:24:30.301Z,45.58
2018-09-08T17:26:59.305Z,45.88
2018-09-08T17:29:28.003Z,45.81
2018-09-08T17:31:56.827Z,46.43
2018-09-08T17:34:26.043Z,46.88
2018-09-08T17:36:55.661Z,47.45
2018-09-08T17:39:24.399Z,47.18
2018-09-08T17:41:53.316Z,47.15
2018-09-08T17:44:22.731Z,48.19
2018-09-08T17:46:51.866Z,48.59
2018-09-08T17:49:20.656Z,48.18
2018-09-08T17:51:49.939Z,49.27
2018-09-08T17:54:18.324Z,48.77
2018-09-08T17:56:46.713Z,48.83
2018-09-08T17:59:15.357Z,48.97
2018-09-08T18:01:43.757Z,48.90
2018-09-08T18:04:12.169Z,49.70
2018-09-08T18:06:40.541Z,50.16
2018-09-08T18:09:08.969Z,49.92
2018-09-08T18:11:37.396Z,49.90
2018-09-08T18:14:05.794Z,50.11
2018-09-08T18:16:34.300Z,50.36
2018-09-08T18:19:03.682Z,50.77
2018-09-08T18:21:32.048Z,51.14
2018-09-08T18:24:00.433Z,51.01
2018-09-08T18:26:28.938Z,51.62
2018-09-08T18:28:57.357Z,51.22
2018-09-08T18:31:25.733Z,51.95
2018-09-08T18:33:54.145Z,51.89
2018-09-08T18:36:23.800Z,52.29
2018-09-08T18:38:52.276Z,52.14
2018-09-08T18:41:20.668Z,52.84
2018-09-08T18:43:49.157Z,52.63
2018-09-08T18:46:17.508Z,52.20
2018-09-08T18:48:45.997Z,52.91
2018-09-08T18:51:14.428Z,53.11
2018-09-08T18:53:42.848Z,52.97
2018-09-08T18:56:11.214Z,52.94
2018-09-08T18:58:39.589Z,52.73
2018-09-08T19:01:08.038Z,53.73
2018-09-08T19:03:36.409Z,53.35
2018-09-08T19:06:04.856Z,53.44
2018-09-08T19:08:38.411Z,54.33
2018-09-08T19:11:06.924Z,54.13
2018-09-08T19:13:35.257Z,54.23
2018-09-08T19:16:03.668Z,54.70
2018-09-08T19:18:32.393Z,54.80
2018-09-08T19:21:00.781Z,54.67
2018-09-08T19:23:29.161Z,53.95
2018-09-08T19:25:57.566Z,53.83
2018-09-08T19:28:25.932Z,54.62
2018-09-08T19:30:54.376Z,54.65
2018-09-08T19:33:22.737Z,54.96
2018-09-08T19:35:51.157Z,55.18
2018-09-08T19:38:19.522Z,55.38
2018-09-08T19:40:48.782Z,55.30
2018-09-08T19:43:17.160Z,55.04
2018-09-08T19:45:45.566Z,54.88
2018-09-08T19:48:15.552Z,55.38
2018-09-08T19:50:43.937Z,54.90
2018-09-08T19:53:17.944Z,55.12
2018-09-08T19:55:46.368Z,55.08
2018-09-08T19:58:20.066Z,55.23
2018-09-08T20:00:48.561Z,56.36
2018-09-08T20:03:16.958Z,56.07
2018-09-08T20:05:45.454Z,56.54
2018-09-08T20:08:13.948Z,56.47
2018-09-08T20:10:42.317Z,55.82
2018-09-08T20:13:10.730Z,56.32
2018-09-08T20:15:39.154Z,56.64
2018-09-08T20:18:07.573Z,56.27
2018-09-08T20:20:35.933Z,55.99
2018-09-08T20:23:07.348Z,56.03
2018-09-08T20:25:35.809Z,57.16
2018-09-08T20:28:04.232Z,56.76
2018-09-08T20:30:32.616Z,56.76
2018-09-08T20:33:01.402Z,57.10
2018-09-08T20:35:29.773Z,58.00
2018-09-08T20:37:58.211Z,57.28
2018-09-08T20:40:26.597Z,57.35
2018-09-08T20:42:55.021Z,57.45
2018-09-08T20:45:23.399Z,58.62
2018-09-08T20:47:51.873Z,58.15
2018-09-08T20:50:20.255Z,58.47
2018-09-08T20:52:48.681Z,58.68
2018-09-08T20:55:17.214Z,58.22
2018-09-08T20:57:45.586Z,58.89
2018-09-08T21:00:14.016Z,58.46
2018-09-08T21:02:42.430Z,58.88
2018-09-08T21:05:10.854Z,59.71
2018-09-08T21:07:39.439Z,59.11
2018-09-08T21:10:08.277Z,59.41
2018-09-08T21:12:36.670Z,59.44
2018-09-08T21:15:05.466Z,60.18
2018-09-08T21:17:33.877Z,60.05
2018-09-08T21:20:02.318Z,59.05
2018-09-08T21:22:30.692Z,59.74
2018-09-08T21:24:59.277Z,59.98
2018-09-08T21:27:27.725Z,60.50
2018-09-08T21:29:56.162Z,60.69
2018-09-08T21:32:24.544Z,60.74
2018-09-08T21:34:52.989Z,60.77
2018-09-08T21:37:21.372Z,60.14
2018-09-08T21:39:49.797Z,60.84
2018-09-08T21:42:18.257Z,60.85
2018-09-08T21:44:46.688Z,61.00
2018-09-08T21:47:15.154Z,60.27
2018-09-08T21:49:43.720Z,60.76
2018-09-08T21:52:12.161Z,60.99
2018-09-08T21:54:40.667Z,60.86
2018-09-08T21:57:09.574Z,60.93
2018-09-08T21:59:37.964Z,61.52
2018-09-08T22:02:06.483Z,60.69
2018-09-08T22:04:34.923Z,61.27
2018-09-08T22:07:04.059Z,61.03
2018-09-08T22:09:32.459Z,61.49
2018-09-08T22:12:00.955Z,61.50
2018-09-08T22:14:29.350Z,62.61
2018-09-08T22:16:57.956Z,61.88
2018-09-08T22:19:26.373Z,62.08
2018-09-08T22:21:54.826Z,62.71
2018-09-08T22:24:23.249Z,62.42
2018-09-08T22:26:51.620Z,62.45
2018-09-08T22:29:20.058Z,62.36
2018-09-08T22:31:48.466Z,62.36
2018-09-08T22:34:16.893Z,62.25
2018-09-08T22:36:45.282Z,62.15
2018-09-08T22:39:13.713Z,62.39
2018-09-08T22:41:42.116Z,62.82
2018-09-08T22:44:10.544Z,62.96
2018-09-08T22:46:38.933Z,63.12
2018-09-08T22:49:07.371Z,63.22
2018-09-08T22:51:35.769Z,63.08
2018-09-08T22:54:04.245Z,62.60
2018-09-08T22:56:32.649Z,62.75
2018-09-08T22:59:01.089Z,63.22
2018-09-08T23:01:29.513Z,63.70
2018-09-08T23:03:57.949Z,63.88
2018-09-08T23:06:26.608Z,64.00
2018-09-08T23:08:55.034Z,63.89
2018-09-08T23:11:23.439Z,63.82
2018-09-08T23:13:51.845Z,63.80
2018-09-08T23:16:20.261Z,63.83
2018-09-08T23:18:48.673Z,63.46
2018-09-08T23:21:17.125Z,63.57
2018-09-08T23:23:45.527Z,63.83
2018-09-08T23:26:13.945Z,63.93
2018-09-08T23:28:42.329Z,63.66
2018-09-08T23:31:10.733Z,63.87
2018-09-08T23:33:39.118Z,64.04
2018-09-08T23:36:07.545Z,64.30
2018-09-08T23:38:35.934Z,64.58
2018-09-08T23:41:04.374Z,64.99
2018-09-08T23:43:32.781Z,64.85
2018-09-08T23:46:01.961Z,64.78
2018-09-08T23:48:30.348Z,64.27
2018-09-08T23:50:58.749Z,63.87
2018-09-08T23:53:27.169Z,64.11
2018-09-08T23:55:55.592Z,64.38
2018-09-08T23:58:23.973Z,64.44
